sensor_id;sensor_type;location;lat;lon;timestamp;P1;durP1;ratioP1;P2;durP2;ratioP2
27977;SDS011;15314;49.248;6.968;2023-09-18T00:00:57;11.95;;;9.80;;
27977;SDS011;15314;49.248;6.968;2023-09-18T00:01:58;12.77;;;9.63;;
27977;SDS011;15314;49.248;6.968;2023-09-18T00:02:58;10.70;;;9.75;;
27977;SDS011;15314;49.248;6.968;2023-09-18T00:04:02;12.88;;;9.95;;
27977;SDS011;15314;49.248;6.968;2023-09-18T00:05:03;10.98;;;9.60;;
27977;SDS011;15314;49.248;6.968;2023-09-18T00:06:04;10.70;;;9.70;;
27977;SDS011;15314;49.248;6.968;2023-09-18T00:07:05;10.85;;;9.75;;
27977;SDS011;15314;49.248;6.968;2023-09-18T00:08:05;11.07;;;10.07;;
27977;SDS011;15314;49.248;6.968;2023-09-18T00:09:06;13.68;;;9.98;;
27977;SDS011;15314;49.248;6.968;2023-09-18T00:10:11;11.90;;;9.13;;
27977;SDS011;15314;49.248;6.968;2023-09-18T00:11:12;11.52;;;10.35;;
27977;SDS011;15314;49.248;6.968;2023-09-18T00:12:12;13.65;;;9.93;;
27977;SDS011;15314;49.248;6.968;2023-09-18T00:13:13;11.45;;;9.63;;
27977;SDS011;15314;49.248;6.968;2023-09-18T00:14:14;11.73;;;10.10;;
27977;SDS011;15314;49.248;6.968;2023-09-18T00:15:14;16.08;;;9.93;;
27977;SDS011;15314;49.248;6.968;2023-09-18T00:16:15;15.32;;;10.57;;
27977;SDS011;15314;49.248;6.968;2023-09-18T00:17:16;16.77;;;11.38;;
27977;SDS011;15314;49.248;6.968;2023-09-18T00:18:17;13.07;;;9.15;;
27977;SDS011;15314;49.248;6.968;2023-09-18T00:19:18;17.30;;;9.32;;
27977;SDS011;15314;49.248;6.968;2023-09-18T00:20:18;14.52;;;9.75;;
27977;SDS011;15314;49.248;6.968;2023-09-18T00:21:19;12.80;;;8.93;;
27977;SDS011;15314;49.248;6.968;2023-09-18T00:22:20;13.75;;;8.95;;
27977;SDS011;15314;49.248;6.968;2023-09-18T00:23:21;14.07;;;9.07;;
27977;SDS011;15314;49.248;6.968;2023-09-18T00:24:21;12.18;;;8.82;;
27977;SDS011;15314;49.248;6.968;2023-09-18T00:25:22;12.48;;;8.70;;
27977;SDS011;15314;49.248;6.968;2023-09-18T00:26:23;13.90;;;8.88;;
27977;SDS011;15314;49.248;6.968;2023-09-18T00:27:24;18.67;;;10.07;;
27977;SDS011;15314;49.248;6.968;2023-09-18T00:28:25;14.40;;;9.60;;
27977;SDS011;15314;49.248;6.968;2023-09-18T00:29:26;15.15;;;9.52;;
27977;SDS011;15314;49.248;6.968;2023-09-18T00:30:26;15.48;;;9.38;;
27977;SDS011;15314;49.248;6.968;2023-09-18T00:31:27;18.77;;;8.85;;
27977;SDS011;15314;49.248;6.968;2023-09-18T00:32:27;17.17;;;9.85;;
27977;SDS011;15314;49.248;6.968;2023-09-18T00:33:28;15.68;;;9.43;;
27977;SDS011;15314;49.248;6.968;2023-09-18T00:34:29;14.85;;;9.88;;
27977;SDS011;15314;49.248;6.968;2023-09-18T00:35:31;12.93;;;8.63;;
27977;SDS011;15314;49.248;6.968;2023-09-18T00:36:32;18.15;;;9.45;;
27977;SDS011;15314;49.248;6.968;2023-09-18T00:37:33;12.15;;;9.00;;
27977;SDS011;15314;49.248;6.968;2023-09-18T00:38:33;10.27;;;9.05;;
27977;SDS011;15314;49.248;6.968;2023-09-18T00:39:34;14.85;;;8.68;;
27977;SDS011;15314;49.248;6.968;2023-09-18T00:40:34;13.50;;;9.40;;
27977;SDS011;15314;49.248;6.968;2023-09-18T00:41:35;13.52;;;9.00;;
27977;SDS011;15314;49.248;6.968;2023-09-18T00:42:36;16.65;;;8.95;;
27977;SDS011;15314;49.248;6.968;2023-09-18T00:43:37;11.45;;;9.02;;
27977;SDS011;15314;49.248;6.968;2023-09-18T00:44:37;14.93;;;8.85;;
27977;SDS011;15314;49.248;6.968;2023-09-18T00:45:39;18.27;;;9.60;;
27977;SDS011;15314;49.248;6.968;2023-09-18T00:46:43;16.13;;;9.13;;
27977;SDS011;15314;49.248;6.968;2023-09-18T00:47:43;16.70;;;9.27;;
27977;SDS011;15314;49.248;6.968;2023-09-18T00:48:44;21.17;;;9.90;;
27977;SDS011;15314;49.248;6.968;2023-09-18T00:49:47;17.58;;;9.65;;
27977;SDS011;15314;49.248;6.968;2023-09-18T00:50:50;26.65;;;10.60;;
27977;SDS011;15314;49.248;6.968;2023-09-18T00:51:50;18.58;;;9.20;;
27977;SDS011;15314;49.248;6.968;2023-09-18T00:52:51;16.80;;;9.73;;
27977;SDS011;15314;49.248;6.968;2023-09-18T00:53:52;14.85;;;10.13;;
27977;SDS011;15314;49.248;6.968;2023-09-18T00:54:53;18.20;;;10.20;;
27977;SDS011;15314;49.248;6.968;2023-09-18T00:55:56;28.48;;;10.40;;
27977;SDS011;15314;49.248;6.968;2023-09-18T00:56:59;20.30;;;9.60;;
27977;SDS011;15314;49.248;6.968;2023-09-18T00:58:00;23.85;;;10.07;;
27977;SDS011;15314;49.248;6.968;2023-09-18T00:59:01;16.35;;;9.68;;
27977;SDS011;15314;49.248;6.968;2023-09-18T01:00:03;24.38;;;9.77;;
27977;SDS011;15314;49.248;6.968;2023-09-18T01:01:05;16.15;;;9.57;;
27977;SDS011;15314;49.248;6.968;2023-09-18T01:02:06;21.17;;;9.75;;
27977;SDS011;15314;49.248;6.968;2023-09-18T01:03:07;14.80;;;9.75;;
27977;SDS011;15314;49.248;6.968;2023-09-18T01:04:07;18.85;;;10.18;;
27977;SDS011;15314;49.248;6.968;2023-09-18T01:05:09;17.08;;;9.02;;
27977;SDS011;15314;49.248;6.968;2023-09-18T01:06:10;22.85;;;9.73;;
27977;SDS011;15314;49.248;6.968;2023-09-18T01:07:10;21.13;;;9.70;;
27977;SDS011;15314;49.248;6.968;2023-09-18T01:08:11;17.80;;;10.18;;
27977;SDS011;15314;49.248;6.968;2023-09-18T01:09:12;21.60;;;9.70;;
27977;SDS011;15314;49.248;6.968;2023-09-18T01:10:13;18.05;;;9.70;;
27977;SDS011;15314;49.248;6.968;2023-09-18T01:11:27;19.65;;;9.57;;
27977;SDS011;15314;49.248;6.968;2023-09-18T01:13:04;13.88;;;8.90;;
27977;SDS011;15314;49.248;6.968;2023-09-18T01:15:48;24.20;;;9.57;;
27977;SDS011;15314;49.248;6.968;2023-09-18T01:16:56;20.95;;;9.35;;
27977;SDS011;15314;49.248;6.968;2023-09-18T01:17:58;17.23;;;9.85;;
27977;SDS011;15314;49.248;6.968;2023-09-18T01:18:59;20.92;;;10.45;;
27977;SDS011;15314;49.248;6.968;2023-09-18T01:19:59;25.30;;;10.07;;
27977;SDS011;15314;49.248;6.968;2023-09-18T01:21:00;17.23;;;9.52;;
27977;SDS011;15314;49.248;6.968;2023-09-18T01:22:00;22.00;;;10.95;;
27977;SDS011;15314;49.248;6.968;2023-09-18T01:23:01;15.82;;;9.73;;
27977;SDS011;15314;49.248;6.968;2023-09-18T01:24:02;17.15;;;10.13;;
27977;SDS011;15314;49.248;6.968;2023-09-18T01:25:03;13.25;;;9.80;;
27977;SDS011;15314;49.248;6.968;2023-09-18T01:26:05;19.65;;;10.48;;
27977;SDS011;15314;49.248;6.968;2023-09-18T01:27:08;14.70;;;9.75;;
27977;SDS011;15314;49.248;6.968;2023-09-18T01:28:10;21.75;;;10.60;;
27977;SDS011;15314;49.248;6.968;2023-09-18T01:29:11;21.98;;;10.70;;
27977;SDS011;15314;49.248;6.968;2023-09-18T01:30:11;19.42;;;10.40;;
27977;SDS011;15314;49.248;6.968;2023-09-18T01:31:13;19.10;;;10.75;;
27977;SDS011;15314;49.248;6.968;2023-09-18T01:32:13;17.10;;;10.23;;
27977;SDS011;15314;49.248;6.968;2023-09-18T01:33:14;15.15;;;8.80;;
27977;SDS011;15314;49.248;6.968;2023-09-18T01:34:16;20.40;;;9.60;;
27977;SDS011;15314;49.248;6.968;2023-09-18T01:35:18;22.20;;;10.55;;
27977;SDS011;15314;49.248;6.968;2023-09-18T01:36:20;16.75;;;10.07;;
27977;SDS011;15314;49.248;6.968;2023-09-18T01:37:23;18.13;;;9.80;;
27977;SDS011;15314;49.248;6.968;2023-09-18T01:38:25;19.55;;;10.32;;
27977;SDS011;15314;49.248;6.968;2023-09-18T01:39:27;20.77;;;10.32;;
27977;SDS011;15314;49.248;6.968;2023-09-18T01:40:31;19.85;;;10.43;;
27977;SDS011;15314;49.248;6.968;2023-09-18T01:41:31;24.70;;;10.82;;
27977;SDS011;15314;49.248;6.968;2023-09-18T01:42:33;16.52;;;9.90;;
27977;SDS011;15314;49.248;6.968;2023-09-18T01:43:35;16.05;;;9.73;;
27977;SDS011;15314;49.248;6.968;2023-09-18T01:44:36;18.48;;;10.32;;
27977;SDS011;15314;49.248;6.968;2023-09-18T01:45:38;15.10;;;9.65;;
27977;SDS011;15314;49.248;6.968;2023-09-18T01:46:39;20.73;;;9.60;;
27977;SDS011;15314;49.248;6.968;2023-09-18T01:47:40;15.32;;;9.32;;
27977;SDS011;15314;49.248;6.968;2023-09-18T01:48:45;19.60;;;9.82;;
27977;SDS011;15314;49.248;6.968;2023-09-18T01:49:47;25.08;;;9.90;;
27977;SDS011;15314;49.248;6.968;2023-09-18T01:50:47;21.55;;;10.00;;
27977;SDS011;15314;49.248;6.968;2023-09-18T01:51:48;16.63;;;9.93;;
27977;SDS011;15314;49.248;6.968;2023-09-18T01:52:49;16.90;;;9.88;;
27977;SDS011;15314;49.248;6.968;2023-09-18T01:53:49;20.27;;;9.55;;
27977;SDS011;15314;49.248;6.968;2023-09-18T01:54:50;15.63;;;9.43;;
27977;SDS011;15314;49.248;6.968;2023-09-18T01:55:51;24.42;;;9.90;;
27977;SDS011;15314;49.248;6.968;2023-09-18T01:56:52;25.58;;;9.57;;
27977;SDS011;15314;49.248;6.968;2023-09-18T01:57:56;23.23;;;9.77;;
27977;SDS011;15314;49.248;6.968;2023-09-18T01:58:57;25.42;;;9.80;;
27977;SDS011;15314;49.248;6.968;2023-09-18T01:59:57;26.58;;;9.88;;
27977;SDS011;15314;49.248;6.968;2023-09-18T02:01:00;15.73;;;10.18;;
27977;SDS011;15314;49.248;6.968;2023-09-18T02:02:01;21.77;;;10.30;;
27977;SDS011;15314;49.248;6.968;2023-09-18T02:03:07;20.77;;;10.32;;
27977;SDS011;15314;49.248;6.968;2023-09-18T02:04:07;22.33;;;10.57;;
27977;SDS011;15314;49.248;6.968;2023-09-18T02:05:08;23.63;;;10.23;;
27977;SDS011;15314;49.248;6.968;2023-09-18T02:06:08;20.50;;;10.20;;
27977;SDS011;15314;49.248;6.968;2023-09-18T02:07:09;21.83;;;10.02;;
27977;SDS011;15314;49.248;6.968;2023-09-18T02:08:09;20.02;;;10.73;;
27977;SDS011;15314;49.248;6.968;2023-09-18T02:09:10;17.02;;;10.15;;
27977;SDS011;15314;49.248;6.968;2023-09-18T02:10:11;23.40;;;10.68;;
27977;SDS011;15314;49.248;6.968;2023-09-18T02:11:14;27.63;;;9.98;;
27977;SDS011;15314;49.248;6.968;2023-09-18T02:12:14;21.83;;;9.88;;
27977;SDS011;15314;49.248;6.968;2023-09-18T02:13:17;20.23;;;10.38;;
27977;SDS011;15314;49.248;6.968;2023-09-18T02:14:18;22.10;;;10.02;;
27977;SDS011;15314;49.248;6.968;2023-09-18T02:15:18;25.48;;;10.30;;
27977;SDS011;15314;49.248;6.968;2023-09-18T02:16:19;22.15;;;9.95;;
27977;SDS011;15314;49.248;6.968;2023-09-18T02:17:24;18.40;;;9.48;;
27977;SDS011;15314;49.248;6.968;2023-09-18T02:18:24;16.30;;;10.05;;
27977;SDS011;15314;49.248;6.968;2023-09-18T02:19:25;19.88;;;10.27;;
27977;SDS011;15314;49.248;6.968;2023-09-18T02:20:26;14.30;;;9.98;;
27977;SDS011;15314;49.248;6.968;2023-09-18T02:21:26;19.25;;;10.63;;
27977;SDS011;15314;49.248;6.968;2023-09-18T02:22:27;22.48;;;10.00;;
27977;SDS011;15314;49.248;6.968;2023-09-18T02:23:28;18.80;;;10.20;;
27977;SDS011;15314;49.248;6.968;2023-09-18T02:24:28;15.48;;;9.32;;
27977;SDS011;15314;49.248;6.968;2023-09-18T02:25:29;17.73;;;9.70;;
27977;SDS011;15314;49.248;6.968;2023-09-18T02:26:29;18.30;;;9.95;;
27977;SDS011;15314;49.248;6.968;2023-09-18T02:27:30;18.67;;;10.07;;
27977;SDS011;15314;49.248;6.968;2023-09-18T02:28:31;16.90;;;10.57;;
27977;SDS011;15314;49.248;6.968;2023-09-18T02:29:32;19.77;;;10.05;;
27977;SDS011;15314;49.248;6.968;2023-09-18T02:30:32;18.15;;;10.20;;
27977;SDS011;15314;49.248;6.968;2023-09-18T02:31:33;23.75;;;10.35;;
27977;SDS011;15314;49.248;6.968;2023-09-18T02:32:34;17.77;;;10.10;;
27977;SDS011;15314;49.248;6.968;2023-09-18T02:33:34;21.95;;;9.20;;
27977;SDS011;15314;49.248;6.968;2023-09-18T02:34:35;19.35;;;10.20;;
27977;SDS011;15314;49.248;6.968;2023-09-18T02:35:36;18.35;;;9.30;;
27977;SDS011;15314;49.248;6.968;2023-09-18T02:36:36;22.45;;;10.27;;
27977;SDS011;15314;49.248;6.968;2023-09-18T02:37:37;21.15;;;10.30;;
27977;SDS011;15314;49.248;6.968;2023-09-18T02:38:37;18.08;;;10.43;;
27977;SDS011;15314;49.248;6.968;2023-09-18T02:39:38;18.20;;;10.02;;
27977;SDS011;15314;49.248;6.968;2023-09-18T02:40:39;24.40;;;10.93;;
27977;SDS011;15314;49.248;6.968;2023-09-18T02:41:39;18.20;;;10.00;;
27977;SDS011;15314;49.248;6.968;2023-09-18T02:42:40;16.27;;;9.05;;
27977;SDS011;15314;49.248;6.968;2023-09-18T02:43:40;20.48;;;10.35;;
27977;SDS011;15314;49.248;6.968;2023-09-18T02:44:41;28.23;;;10.70;;
27977;SDS011;15314;49.248;6.968;2023-09-18T02:45:42;18.95;;;9.25;;
27977;SDS011;15314;49.248;6.968;2023-09-18T02:46:42;24.42;;;9.98;;
27977;SDS011;15314;49.248;6.968;2023-09-18T02:47:43;21.60;;;10.25;;
27977;SDS011;15314;49.248;6.968;2023-09-18T02:48:44;15.38;;;8.98;;
27977;SDS011;15314;49.248;6.968;2023-09-18T02:49:44;22.40;;;9.90;;
27977;SDS011;15314;49.248;6.968;2023-09-18T02:50:45;22.58;;;10.52;;
27977;SDS011;15314;49.248;6.968;2023-09-18T02:51:46;23.85;;;9.77;;
27977;SDS011;15314;49.248;6.968;2023-09-18T02:52:46;21.30;;;9.65;;
27977;SDS011;15314;49.248;6.968;2023-09-18T02:53:47;22.80;;;9.52;;
27977;SDS011;15314;49.248;6.968;2023-09-18T02:54:47;18.27;;;9.63;;
27977;SDS011;15314;49.248;6.968;2023-09-18T02:55:49;16.73;;;10.20;;
27977;SDS011;15314;49.248;6.968;2023-09-18T02:56:51;19.55;;;9.57;;
27977;SDS011;15314;49.248;6.968;2023-09-18T02:57:51;22.83;;;10.32;;
27977;SDS011;15314;49.248;6.968;2023-09-18T02:58:52;23.17;;;10.02;;
27977;SDS011;15314;49.248;6.968;2023-09-18T02:59:52;21.40;;;9.43;;
27977;SDS011;15314;49.248;6.968;2023-09-18T03:00:53;17.30;;;9.35;;
27977;SDS011;15314;49.248;6.968;2023-09-18T03:01:55;23.25;;;9.70;;
27977;SDS011;15314;49.248;6.968;2023-09-18T03:02:56;20.35;;;9.20;;
27977;SDS011;15314;49.248;6.968;2023-09-18T03:03:56;18.67;;;9.65;;
27977;SDS011;15314;49.248;6.968;2023-09-18T03:04:57;18.48;;;9.82;;
27977;SDS011;15314;49.248;6.968;2023-09-18T03:06:01;18.38;;;9.60;;
27977;SDS011;15314;49.248;6.968;2023-09-18T03:07:03;17.10;;;9.32;;
27977;SDS011;15314;49.248;6.968;2023-09-18T03:08:03;25.38;;;9.35;;
27977;SDS011;15314;49.248;6.968;2023-09-18T03:09:04;22.40;;;9.55;;
27977;SDS011;15314;49.248;6.968;2023-09-18T03:10:05;21.20;;;9.25;;
27977;SDS011;15314;49.248;6.968;2023-09-18T03:11:12;19.65;;;8.52;;
27977;SDS011;15314;49.248;6.968;2023-09-18T03:12:13;13.68;;;8.43;;
27977;SDS011;15314;49.248;6.968;2023-09-18T03:13:14;20.42;;;9.73;;
27977;SDS011;15314;49.248;6.968;2023-09-18T03:14:15;21.02;;;9.73;;
27977;SDS011;15314;49.248;6.968;2023-09-18T03:15:16;19.92;;;9.13;;
27977;SDS011;15314;49.248;6.968;2023-09-18T03:16:17;16.23;;;9.18;;
27977;SDS011;15314;49.248;6.968;2023-09-18T03:17:17;23.13;;;9.65;;
27977;SDS011;15314;49.248;6.968;2023-09-18T03:18:18;20.83;;;9.63;;
27977;SDS011;15314;49.248;6.968;2023-09-18T03:19:18;17.80;;;8.93;;
27977;SDS011;15314;49.248;6.968;2023-09-18T03:20:22;22.00;;;9.80;;
27977;SDS011;15314;49.248;6.968;2023-09-18T03:21:23;19.35;;;9.73;;
27977;SDS011;15314;49.248;6.968;2023-09-18T03:22:24;26.50;;;9.48;;
27977;SDS011;15314;49.248;6.968;2023-09-18T03:23:25;19.77;;;9.68;;
27977;SDS011;15314;49.248;6.968;2023-09-18T03:24:26;19.70;;;9.82;;
27977;SDS011;15314;49.248;6.968;2023-09-18T03:25:27;25.23;;;10.38;;
27977;SDS011;15314;49.248;6.968;2023-09-18T03:26:27;19.20;;;10.10;;
27977;SDS011;15314;49.248;6.968;2023-09-18T03:27:28;24.45;;;11.10;;
27977;SDS011;15314;49.248;6.968;2023-09-18T03:28:29;23.17;;;11.23;;
27977;SDS011;15314;49.248;6.968;2023-09-18T03:29:30;20.23;;;9.60;;
27977;SDS011;15314;49.248;6.968;2023-09-18T03:30:30;19.77;;;10.05;;
27977;SDS011;15314;49.248;6.968;2023-09-18T03:31:32;19.38;;;10.38;;
27977;SDS011;15314;49.248;6.968;2023-09-18T03:32:32;23.80;;;10.68;;
27977;SDS011;15314;49.248;6.968;2023-09-18T03:33:33;22.02;;;10.45;;
27977;SDS011;15314;49.248;6.968;2023-09-18T03:34:33;22.00;;;10.15;;
27977;SDS011;15314;49.248;6.968;2023-09-18T03:35:44;20.73;;;10.40;;
27977;SDS011;15314;49.248;6.968;2023-09-18T03:36:49;21.13;;;10.15;;
27977;SDS011;15314;49.248;6.968;2023-09-18T03:37:50;16.98;;;9.88;;
27977;SDS011;15314;49.248;6.968;2023-09-18T03:38:51;23.23;;;10.55;;
27977;SDS011;15314;49.248;6.968;2023-09-18T03:39:52;22.00;;;10.00;;
27977;SDS011;15314;49.248;6.968;2023-09-18T03:40:53;27.63;;;11.23;;
27977;SDS011;15314;49.248;6.968;2023-09-18T03:41:53;18.65;;;10.10;;
27977;SDS011;15314;49.248;6.968;2023-09-18T03:42:54;21.92;;;9.60;;
27977;SDS011;15314;49.248;6.968;2023-09-18T03:43:54;20.92;;;9.73;;
27977;SDS011;15314;49.248;6.968;2023-09-18T03:44:55;21.40;;;9.75;;
27977;SDS011;15314;49.248;6.968;2023-09-18T03:46:02;24.83;;;10.02;;
27977;SDS011;15314;49.248;6.968;2023-09-18T03:47:07;21.17;;;9.70;;
27977;SDS011;15314;49.248;6.968;2023-09-18T03:48:07;26.45;;;10.95;;
27977;SDS011;15314;49.248;6.968;2023-09-18T03:49:08;20.48;;;10.40;;
27977;SDS011;15314;49.248;6.968;2023-09-18T03:50:09;22.77;;;9.60;;
27977;SDS011;15314;49.248;6.968;2023-09-18T03:51:10;23.50;;;10.70;;
27977;SDS011;15314;49.248;6.968;2023-09-18T03:52:12;22.40;;;10.88;;
27977;SDS011;15314;49.248;6.968;2023-09-18T03:53:13;23.20;;;9.52;;
27977;SDS011;15314;49.248;6.968;2023-09-18T03:54:13;17.73;;;10.35;;
27977;SDS011;15314;49.248;6.968;2023-09-18T03:55:14;14.82;;;9.88;;
27977;SDS011;15314;49.248;6.968;2023-09-18T03:56:14;18.45;;;9.65;;
27977;SDS011;15314;49.248;6.968;2023-09-18T03:57:15;14.43;;;9.05;;
27977;SDS011;15314;49.248;6.968;2023-09-18T03:58:16;17.27;;;9.63;;
27977;SDS011;15314;49.248;6.968;2023-09-18T03:59:16;17.30;;;9.85;;
27977;SDS011;15314;49.248;6.968;2023-09-18T04:00:17;15.60;;;8.73;;
27977;SDS011;15314;49.248;6.968;2023-09-18T04:01:18;15.18;;;8.35;;
27977;SDS011;15314;49.248;6.968;2023-09-18T04:02:18;16.88;;;9.00;;
27977;SDS011;15314;49.248;6.968;2023-09-18T04:03:21;12.45;;;8.20;;
27977;SDS011;15314;49.248;6.968;2023-09-18T04:04:21;11.77;;;8.82;;
27977;SDS011;15314;49.248;6.968;2023-09-18T04:05:22;19.70;;;8.75;;
27977;SDS011;15314;49.248;6.968;2023-09-18T04:06:22;17.05;;;9.10;;
27977;SDS011;15314;49.248;6.968;2023-09-18T04:07:26;18.13;;;8.73;;
27977;SDS011;15314;49.248;6.968;2023-09-18T04:08:27;17.00;;;9.20;;
27977;SDS011;15314;49.248;6.968;2023-09-18T04:09:27;17.45;;;8.88;;
27977;SDS011;15314;49.248;6.968;2023-09-18T04:10:28;15.65;;;8.45;;
27977;SDS011;15314;49.248;6.968;2023-09-18T04:11:28;15.18;;;9.27;;
27977;SDS011;15314;49.248;6.968;2023-09-18T04:12:32;12.70;;;8.38;;
27977;SDS011;15314;49.248;6.968;2023-09-18T04:13:33;15.13;;;8.20;;
27977;SDS011;15314;49.248;6.968;2023-09-18T04:14:33;15.02;;;8.63;;
27977;SDS011;15314;49.248;6.968;2023-09-18T04:15:34;11.77;;;8.57;;
27977;SDS011;15314;49.248;6.968;2023-09-18T04:16:37;11.27;;;8.30;;
27977;SDS011;15314;49.248;6.968;2023-09-18T04:17:41;14.57;;;8.85;;
27977;SDS011;15314;49.248;6.968;2023-09-18T04:18:42;12.07;;;8.52;;
27977;SDS011;15314;49.248;6.968;2023-09-18T04:19:43;12.63;;;8.45;;
27977;SDS011;15314;49.248;6.968;2023-09-18T04:20:44;21.92;;;8.70;;
27977;SDS011;15314;49.248;6.968;2023-09-18T04:21:45;10.07;;;7.90;;
27977;SDS011;15314;49.248;6.968;2023-09-18T04:22:46;11.27;;;8.50;;
27977;SDS011;15314;49.248;6.968;2023-09-18T04:23:51;8.80;;;7.97;;
27977;SDS011;15314;49.248;6.968;2023-09-18T04:24:57;13.88;;;8.90;;
27977;SDS011;15314;49.248;6.968;2023-09-18T04:25:57;11.88;;;7.90;;
27977;SDS011;15314;49.248;6.968;2023-09-18T04:26:58;12.13;;;8.68;;
27977;SDS011;15314;49.248;6.968;2023-09-18T04:27:58;9.60;;;7.80;;
27977;SDS011;15314;49.248;6.968;2023-09-18T04:29:00;13.65;;;7.78;;
27977;SDS011;15314;49.248;6.968;2023-09-18T04:30:00;13.25;;;8.07;;
27977;SDS011;15314;49.248;6.968;2023-09-18T04:31:01;15.30;;;8.02;;
27977;SDS011;15314;49.248;6.968;2023-09-18T04:32:02;12.50;;;7.25;;
27977;SDS011;15314;49.248;6.968;2023-09-18T04:33:04;11.05;;;8.13;;
27977;SDS011;15314;49.248;6.968;2023-09-18T04:34:04;11.63;;;7.60;;
27977;SDS011;15314;49.248;6.968;2023-09-18T04:35:05;12.65;;;7.75;;
27977;SDS011;15314;49.248;6.968;2023-09-18T04:36:06;9.75;;;7.40;;
27977;SDS011;15314;49.248;6.968;2023-09-18T04:37:08;9.20;;;7.90;;
27977;SDS011;15314;49.248;6.968;2023-09-18T04:38:08;14.70;;;8.00;;
27977;SDS011;15314;49.248;6.968;2023-09-18T04:39:14;14.02;;;6.97;;
27977;SDS011;15314;49.248;6.968;2023-09-18T04:40:15;12.32;;;8.63;;
27977;SDS011;15314;49.248;6.968;2023-09-18T04:41:15;10.60;;;7.75;;
27977;SDS011;15314;49.248;6.968;2023-09-18T04:42:16;12.52;;;7.97;;
27977;SDS011;15314;49.248;6.968;2023-09-18T04:43:18;12.68;;;6.78;;
27977;SDS011;15314;49.248;6.968;2023-09-18T04:44:18;12.85;;;8.30;;
27977;SDS011;15314;49.248;6.968;2023-09-18T04:45:19;11.43;;;7.20;;
27977;SDS011;15314;49.248;6.968;2023-09-18T04:46:20;12.32;;;7.60;;
27977;SDS011;15314;49.248;6.968;2023-09-18T04:47:20;17.35;;;7.85;;
27977;SDS011;15314;49.248;6.968;2023-09-18T04:48:21;10.23;;;7.80;;
27977;SDS011;15314;49.248;6.968;2023-09-18T04:49:21;12.73;;;7.72;;
27977;SDS011;15314;49.248;6.968;2023-09-18T04:50:23;12.77;;;7.55;;
27977;SDS011;15314;49.248;6.968;2023-09-18T04:51:26;10.88;;;7.53;;
27977;SDS011;15314;49.248;6.968;2023-09-18T04:52:27;8.13;;;6.97;;
27977;SDS011;15314;49.248;6.968;2023-09-18T04:53:27;16.52;;;7.63;;
27977;SDS011;15314;49.248;6.968;2023-09-18T04:54:28;9.88;;;7.50;;
27977;SDS011;15314;49.248;6.968;2023-09-18T04:55:28;10.85;;;7.18;;
27977;SDS011;15314;49.248;6.968;2023-09-18T04:56:29;13.35;;;7.75;;
27977;SDS011;15314;49.248;6.968;2023-09-18T04:57:30;10.40;;;7.57;;
27977;SDS011;15314;49.248;6.968;2023-09-18T04:58:30;13.27;;;7.63;;
27977;SDS011;15314;49.248;6.968;2023-09-18T04:59:32;29.25;;;8.25;;
27977;SDS011;15314;49.248;6.968;2023-09-18T05:00:33;12.15;;;7.50;;
27977;SDS011;15314;49.248;6.968;2023-09-18T05:01:33;12.95;;;7.53;;
27977;SDS011;15314;49.248;6.968;2023-09-18T05:02:34;10.52;;;7.25;;
27977;SDS011;15314;49.248;6.968;2023-09-18T05:03:35;12.68;;;7.60;;
27977;SDS011;15314;49.248;6.968;2023-09-18T05:04:36;14.02;;;7.70;;
27977;SDS011;15314;49.248;6.968;2023-09-18T05:05:37;10.77;;;7.40;;
27977;SDS011;15314;49.248;6.968;2023-09-18T05:06:37;12.48;;;7.40;;
27977;SDS011;15314;49.248;6.968;2023-09-18T05:07:39;12.25;;;8.13;;
27977;SDS011;15314;49.248;6.968;2023-09-18T05:08:40;10.40;;;7.50;;
27977;SDS011;15314;49.248;6.968;2023-09-18T05:09:40;9.57;;;7.45;;
27977;SDS011;15314;49.248;6.968;2023-09-18T05:10:41;11.73;;;7.22;;
27977;SDS011;15314;49.248;6.968;2023-09-18T05:11:43;14.05;;;7.18;;
27977;SDS011;15314;49.248;6.968;2023-09-18T05:12:44;9.20;;;7.47;;
27977;SDS011;15314;49.248;6.968;2023-09-18T05:13:44;15.68;;;7.43;;
27977;SDS011;15314;49.248;6.968;2023-09-18T05:14:45;11.68;;;7.30;;
27977;SDS011;15314;49.248;6.968;2023-09-18T05:15:45;13.07;;;7.55;;
27977;SDS011;15314;49.248;6.968;2023-09-18T05:16:46;13.30;;;7.47;;
27977;SDS011;15314;49.248;6.968;2023-09-18T05:17:47;12.25;;;7.20;;
27977;SDS011;15314;49.248;6.968;2023-09-18T05:18:51;15.52;;;7.28;;
27977;SDS011;15314;49.248;6.968;2023-09-18T05:19:52;11.27;;;7.47;;
27977;SDS011;15314;49.248;6.968;2023-09-18T05:20:53;11.10;;;7.50;;
27977;SDS011;15314;49.248;6.968;2023-09-18T05:21:54;11.45;;;7.20;;
27977;SDS011;15314;49.248;6.968;2023-09-18T05:22:55;11.25;;;8.07;;
27977;SDS011;15314;49.248;6.968;2023-09-18T05:23:56;10.52;;;7.97;;
27977;SDS011;15314;49.248;6.968;2023-09-18T05:24:57;8.85;;;8.00;;
27977;SDS011;15314;49.248;6.968;2023-09-18T05:25:58;16.45;;;7.60;;
27977;SDS011;15314;49.248;6.968;2023-09-18T05:26:59;14.07;;;8.20;;
27977;SDS011;15314;49.248;6.968;2023-09-18T05:28:00;10.57;;;7.97;;
27977;SDS011;15314;49.248;6.968;2023-09-18T05:29:01;11.63;;;8.32;;
27977;SDS011;15314;49.248;6.968;2023-09-18T05:30:03;13.35;;;7.88;;
27977;SDS011;15314;49.248;6.968;2023-09-18T05:31:05;15.60;;;11.48;;
27977;SDS011;15314;49.248;6.968;2023-09-18T05:32:05;16.35;;;13.40;;
27977;SDS011;15314;49.248;6.968;2023-09-18T05:33:06;12.18;;;10.00;;
27977;SDS011;15314;49.248;6.968;2023-09-18T05:34:08;13.13;;;10.63;;
27977;SDS011;15314;49.248;6.968;2023-09-18T05:35:09;11.40;;;8.73;;
27977;SDS011;15314;49.248;6.968;2023-09-18T05:36:12;12.32;;;7.78;;
27977;SDS011;15314;49.248;6.968;2023-09-18T05:37:13;10.02;;;9.07;;
27977;SDS011;15314;49.248;6.968;2023-09-18T05:38:14;11.95;;;10.30;;
27977;SDS011;15314;49.248;6.968;2023-09-18T05:39:15;10.45;;;7.85;;
27977;SDS011;15314;49.248;6.968;2023-09-18T05:40:16;11.35;;;7.50;;
27977;SDS011;15314;49.248;6.968;2023-09-18T05:41:18;11.23;;;8.52;;
27977;SDS011;15314;49.248;6.968;2023-09-18T05:42:18;15.02;;;8.52;;
27977;SDS011;15314;49.248;6.968;2023-09-18T05:43:19;10.18;;;7.95;;
27977;SDS011;15314;49.248;6.968;2023-09-18T05:44:19;9.40;;;8.48;;
27977;SDS011;15314;49.248;6.968;2023-09-18T05:45:20;10.18;;;8.75;;
27977;SDS011;15314;49.248;6.968;2023-09-18T05:46:21;9.25;;;8.30;;
27977;SDS011;15314;49.248;6.968;2023-09-18T05:47:21;10.82;;;8.88;;
27977;SDS011;15314;49.248;6.968;2023-09-18T05:48:23;14.82;;;8.80;;
27977;SDS011;15314;49.248;6.968;2023-09-18T05:49:24;11.80;;;8.85;;
27977;SDS011;15314;49.248;6.968;2023-09-18T05:50:25;9.70;;;8.80;;
27977;SDS011;15314;49.248;6.968;2023-09-18T05:51:27;13.10;;;8.68;;
27977;SDS011;15314;49.248;6.968;2023-09-18T05:52:30;9.52;;;8.43;;
27977;SDS011;15314;49.248;6.968;2023-09-18T05:53:30;10.02;;;9.00;;
27977;SDS011;15314;49.248;6.968;2023-09-18T05:54:31;11.43;;;9.13;;
27977;SDS011;15314;49.248;6.968;2023-09-18T05:55:34;12.10;;;9.23;;
27977;SDS011;15314;49.248;6.968;2023-09-18T05:56:35;11.07;;;8.90;;
27977;SDS011;15314;49.248;6.968;2023-09-18T05:57:36;10.63;;;9.63;;
27977;SDS011;15314;49.248;6.968;2023-09-18T05:58:37;12.90;;;9.40;;
27977;SDS011;15314;49.248;6.968;2023-09-18T05:59:38;13.88;;;8.90;;
27977;SDS011;15314;49.248;6.968;2023-09-18T06:00:40;10.90;;;8.60;;
27977;SDS011;15314;49.248;6.968;2023-09-18T06:01:40;10.57;;;9.40;;
27977;SDS011;15314;49.248;6.968;2023-09-18T06:02:41;14.77;;;9.32;;
27977;SDS011;15314;49.248;6.968;2023-09-18T06:03:43;9.88;;;8.98;;
27977;SDS011;15314;49.248;6.968;2023-09-18T06:04:44;15.90;;;9.20;;